sensor_id;sensor_type;location;lat;lon;timestamp;pressure;altitude;pressure_sealevel;temperature;humidity
3142;BME280;1581;51.568;6.998;2023-02-22T00:01:14;100867.47;;;9.22;100.00
3142;BME280;1581;51.568;6.998;2023-02-22T00:03:54;100868.31;;;9.22;100.00
3142;BME280;1581;51.568;6.998;2023-02-22T00:06:24;100866.13;;;9.26;100.00
3142;BME280;1581;51.568;6.998;2023-02-22T00:08:52;100863.63;;;9.24;100.00
3142;BME280;1581;51.568;6.998;2023-02-22T00:11:24;100862.34;;;9.20;100.00
3142;BME280;1581;51.568;6.998;2023-02-22T00:13:54;100848.00;;;9.29;100.00
3142;BME280;1581;51.568;6.998;2023-02-22T00:16:25;100845.97;;;9.09;100.00
3142;BME280;1581;51.568;6.998;2023-02-22T00:18:55;100840.75;;;8.93;100.00
3142;BME280;1581;51.568;6.998;2023-02-22T00:21:25;100829.72;;;8.81;100.00
3142;BME280;1581;51.568;6.998;2023-02-22T00:23:57;100833.16;;;8.59;100.00
3142;BME280;1581;51.568;6.998;2023-02-22T00:26:35;100839.19;;;8.46;100.00
3142;BME280;1581;51.568;6.998;2023-02-22T00:29:06;100845.22;;;8.32;100.00
3142;BME280;1581;51.568;6.998;2023-02-22T00:31:38;100839.13;;;8.07;100.00
3142;BME280;1581;51.568;6.998;2023-02-22T00:34:07;100847.44;;;8.04;100.00
3142;BME280;1581;51.568;6.998;2023-02-22T00:36:37;100844.63;;;7.98;100.00
3142;BME280;1581;51.568;6.998;2023-02-22T00:39:07;100836.88;;;7.88;100.00
3142;BME280;1581;51.568;6.998;2023-02-22T00:41:39;100845.00;;;7.79;100.00
3142;BME280;1581;51.568;6.998;2023-02-22T00:44:09;100841.22;;;7.66;100.00
3142;BME280;1581;51.568;6.998;2023-02-22T00:46:39;100838.38;;;7.59;100.00
3142;BME280;1581;51.568;6.998;2023-02-22T00:49:07;100835.91;;;7.50;100.00
3142;BME280;1581;51.568;6.998;2023-02-22T00:51:37;100833.09;;;7.35;100.00
3142;BME280;1581;51.568;6.998;2023-02-22T00:54:07;100825.63;;;7.31;100.00
3142;BME280;1581;51.568;6.998;2023-02-22T00:56:38;100825.63;;;7.23;100.00
3142;BME280;1581;51.568;6.998;2023-02-22T00:59:07;100829.09;;;7.15;100.00
3142;BME280;1581;51.568;6.998;2023-02-22T01:01:37;100825.97;;;7.12;100.00
3142;BME280;1581;51.568;6.998;2023-02-22T01:04:06;100817.84;;;7.05;100.00
3142;BME280;1581;51.568;6.998;2023-02-22T01:06:36;100818.19;;;7.02;100.00
3142;BME280;1581;51.568;6.998;2023-02-22T01:09:05;100814.50;;;6.95;100.00
3142;BME280;1581;51.568;6.998;2023-02-22T01:11:37;100817.81;;;6.89;100.00
3142;BME280;1581;51.568;6.998;2023-02-22T01:14:07;100816.47;;;6.85;100.00
3142;BME280;1581;51.568;6.998;2023-02-22T01:16:37;100813.00;;;6.77;100.00
3142;BME280;1581;51.568;6.998;2023-02-22T01:19:06;100805.88;;;6.70;100.00
3142;BME280;1581;51.568;6.998;2023-02-22T01:21:39;100802.88;;;6.65;100.00
3142;BME280;1581;51.568;6.998;2023-02-22T01:24:09;100806.34;;;6.57;100.00
3142;BME280;1581;51.568;6.998;2023-02-22T01:26:50;100802.34;;;6.45;100.00
3142;BME280;1581;51.568;6.998;2023-02-22T01:29:20;100810.91;;;6.39;100.00
3142;BME280;1581;51.568;6.998;2023-02-22T01:31:55;100810.91;;;6.39;100.00
3142;BME280;1581;51.568;6.998;2023-02-22T01:34:25;100804.75;;;6.31;100.00
3142;BME280;1581;51.568;6.998;2023-02-22T01:36:54;100801.66;;;6.43;100.00
3142;BME280;1581;51.568;6.998;2023-02-22T01:39:24;100804.19;;;6.53;100.00
3142;BME280;1581;51.568;6.998;2023-02-22T01:41:56;100797.09;;;6.69;100.00
3142;BME280;1581;51.568;6.998;2023-02-22T01:44:29;100788.16;;;6.70;100.00
3142;BME280;1581;51.568;6.998;2023-02-22T01:47:00;100791.66;;;6.86;100.00
3142;BME280;1581;51.568;6.998;2023-02-22T01:49:32;100791.50;;;6.88;100.00
3142;BME280;1581;51.568;6.998;2023-02-22T01:52:07;100792.00;;;6.91;100.00
3142;BME280;1581;51.568;6.998;2023-02-22T01:54:40;100788.88;;;7.04;100.00
3142;BME280;1581;51.568;6.998;2023-02-22T01:57:19;100796.66;;;7.13;100.00
3142;BME280;1581;51.568;6.998;2023-02-22T01:59:53;100789.69;;;7.20;100.00
3142;BME280;1581;51.568;6.998;2023-02-22T02:02:23;100780.44;;;7.32;100.00
3142;BME280;1581;51.568;6.998;2023-02-22T02:04:54;100784.75;;;7.33;100.00
3142;BME280;1581;51.568;6.998;2023-02-22T02:07:24;100786.53;;;7.41;100.00
3142;BME280;1581;51.568;6.998;2023-02-22T02:09:58;100780.09;;;7.43;100.00
3142;BME280;1581;51.568;6.998;2023-02-22T02:12:32;100780.41;;;7.40;100.00
3142;BME280;1581;51.568;6.998;2023-02-22T02:15:21;100777.09;;;7.38;100.00
3142;BME280;1581;51.568;6.998;2023-02-22T02:17:52;100776.91;;;7.40;100.00
3142;BME280;1581;51.568;6.998;2023-02-22T02:20:28;100758.69;;;7.45;100.00
3142;BME280;1581;51.568;6.998;2023-02-22T02:23:07;100759.69;;;7.44;100.00
3142;BME280;1581;51.568;6.998;2023-02-22T02:26:18;100749.75;;;7.54;100.00
3142;BME280;1581;51.568;6.998;2023-02-22T02:29:21;100745.75;;;7.58;100.00
3142;BME280;1581;51.568;6.998;2023-02-22T02:32:18;100740.13;;;7.53;100.00
3142;BME280;1581;51.568;6.998;2023-02-22T02:34:53;100742.75;;;7.61;100.00
3142;BME280;1581;51.568;6.998;2023-02-22T02:37:33;100734.50;;;7.40;100.00
3142;BME280;1581;51.568;6.998;2023-02-22T02:40:11;100741.44;;;7.57;100.00
3142;BME280;1581;51.568;6.998;2023-02-22T02:42:54;100734.63;;;7.54;100.00
3142;BME280;1581;51.568;6.998;2023-02-22T02:45:32;100735.06;;;7.11;100.00
3142;BME280;1581;51.568;6.998;2023-02-22T02:48:05;100729.41;;;7.30;100.00
3142;BME280;1581;51.568;6.998;2023-02-22T02:50:41;100727.56;;;7.31;100.00
3142;BME280;1581;51.568;6.998;2023-02-22T02:53:14;100731.22;;;7.38;100.00
3142;BME280;1581;51.568;6.998;2023-02-22T02:55:43;100721.44;;;7.30;100.00
3142;BME280;1581;51.568;6.998;2023-02-22T02:58:18;100716.81;;;7.32;100.00
3142;BME280;1581;51.568;6.998;2023-02-22T03:00:46;100721.13;;;7.33;100.00
3142;BME280;1581;51.568;6.998;2023-02-22T03:04:03;100714.28;;;7.39;100.00
3142;BME280;1581;51.568;6.998;2023-02-22T03:07:22;100718.41;;;7.57;100.00
3142;BME280;1581;51.568;6.998;2023-02-22T03:10:12;100708.13;;;7.54;100.00
3142;BME280;1581;51.568;6.998;2023-02-22T03:12:47;100702.81;;;7.62;100.00
3142;BME280;1581;51.568;6.998;2023-02-22T03:15:33;100691.38;;;7.62;100.00
3142;BME280;1581;51.568;6.998;2023-02-22T03:18:08;100687.41;;;7.66;100.00
3142;BME280;1581;51.568;6.998;2023-02-22T03:20:49;100685.19;;;7.77;100.00
3142;BME280;1581;51.568;6.998;2023-02-22T03:23:24;100683.00;;;7.80;100.00
3142;BME280;1581;51.568;6.998;2023-02-22T03:26:00;100680.84;;;7.84;100.00
3142;BME280;1581;51.568;6.998;2023-02-22T03:28:30;100683.56;;;7.68;100.00
3142;BME280;1581;51.568;6.998;2023-02-22T03:31:03;100678.44;;;7.67;100.00
3142;BME280;1581;51.568;6.998;2023-02-22T03:33:36;100679.72;;;7.78;100.00
3142;BME280;1581;51.568;6.998;2023-02-22T03:36:13;100679.34;;;7.81;100.00
3142;BME280;1581;51.568;6.998;2023-02-22T03:38:44;100682.19;;;7.80;100.00
3142;BME280;1581;51.568;6.998;2023-02-22T03:41:15;100673.91;;;7.75;100.00
3142;BME280;1581;51.568;6.998;2023-02-22T03:43:48;100674.91;;;7.82;100.00
3142;BME280;1581;51.568;6.998;2023-02-22T03:46:17;100678.22;;;7.76;100.00
3142;BME280;1581;51.568;6.998;2023-02-22T03:48:49;100670.53;;;7.89;100.00
3142;BME280;1581;51.568;6.998;2023-02-22T03:51:20;100679.53;;;7.80;100.00
3142;BME280;1581;51.568;6.998;2023-02-22T03:53:49;100672.06;;;7.83;100.00
3142;BME280;1581;51.568;6.998;2023-02-22T03:56:22;100671.91;;;7.77;100.00
3142;BME280;1581;51.568;6.998;2023-02-22T03:58:51;100670.53;;;7.89;100.00
3142;BME280;1581;51.568;6.998;2023-02-22T04:01:19;100673.91;;;7.83;100.00
3142;BME280;1581;51.568;6.998;2023-02-22T04:03:48;100677.59;;;7.66;100.00
3142;BME280;1581;51.568;6.998;2023-02-22T04:06:16;100671.53;;;7.58;100.00
3142;BME280;1581;51.568;6.998;2023-02-22T04:08:45;100679.09;;;7.68;100.00
3142;BME280;1581;51.568;6.998;2023-02-22T04:11:12;100678.31;;;7.90;100.00
3142;BME280;1581;51.568;6.998;2023-02-22T04:13:40;100682.81;;;7.90;100.00
3142;BME280;1581;51.568;6.998;2023-02-22T04:16:08;100676.56;;;7.83;100.00
3142;BME280;1581;51.568;6.998;2023-02-22T04:18:36;100678.19;;;7.84;100.00
3142;BME280;1581;51.568;6.998;2023-02-22T04:21:03;100680.53;;;7.79;100.00
3142;BME280;1581;51.568;6.998;2023-02-22T04:23:31;100691.97;;;7.79;100.00
3142;BME280;1581;51.568;6.998;2023-02-22T04:26:00;100690.28;;;7.40;100.00
3142;BME280;1581;51.568;6.998;2023-02-22T04:28:28;100691.63;;;7.28;100.00
3142;BME280;1581;51.568;6.998;2023-02-22T04:30:56;100688.88;;;7.06;100.00
3142;BME280;1581;51.568;6.998;2023-02-22T04:33:23;100683.41;;;6.99;100.00
3142;BME280;1581;51.568;6.998;2023-02-22T04:35:51;100684.22;;;6.92;100.00
3142;BME280;1581;51.568;6.998;2023-02-22T04:38:19;100677.06;;;7.16;100.00
3142;BME280;1581;51.568;6.998;2023-02-22T04:40:46;100676.59;;;6.81;100.00
3142;BME280;1581;51.568;6.998;2023-02-22T04:43:15;100675.63;;;6.74;100.00
3142;BME280;1581;51.568;6.998;2023-02-22T04:45:43;100669.69;;;6.56;100.00
3142;BME280;1581;51.568;6.998;2023-02-22T04:48:11;100662.69;;;6.79;100.00
3142;BME280;1581;51.568;6.998;2023-02-22T04:50:38;100661.69;;;7.12;100.00
3142;BME280;1581;51.568;6.998;2023-02-22T04:53:07;100664.81;;;7.15;100.00
3142;BME280;1581;51.568;6.998;2023-02-22T04:55:34;100664.50;;;7.18;100.00
3142;BME280;1581;51.568;6.998;2023-02-22T04:58:02;100661.34;;;7.15;100.00
3142;BME280;1581;51.568;6.998;2023-02-22T05:00:31;100657.50;;;7.25;100.00
3142;BME280;1581;51.568;6.998;2023-02-22T05:02:59;100667.41;;;7.39;100.00
3142;BME280;1581;51.568;6.998;2023-02-22T05:05:26;100660.50;;;7.30;100.00
3142;BME280;1581;51.568;6.998;2023-02-22T05:07:54;100653.84;;;7.34;100.00
3142;BME280;1581;51.568;6.998;2023-02-22T05:10:22;100650.56;;;7.32;100.00
3142;BME280;1581;51.568;6.998;2023-02-22T05:12:50;100649.91;;;7.14;100.00
3142;BME280;1581;51.568;6.998;2023-02-22T05:15:20;100642.47;;;7.18;100.00
3142;BME280;1581;51.568;6.998;2023-02-22T05:17:51;100637.28;;;7.40;100.00
3142;BME280;1581;51.568;6.998;2023-02-22T05:20:27;100635.28;;;7.42;100.00
3142;BME280;1581;51.568;6.998;2023-02-22T05:22:55;100633.66;;;7.33;100.00
3142;BME280;1581;51.568;6.998;2023-02-22T05:25:23;100633.66;;;7.25;100.00
3142;BME280;1581;51.568;6.998;2023-02-22T05:27:51;100629.03;;;7.27;100.00
3142;BME280;1581;51.568;6.998;2023-02-22T05:30:20;100624.38;;;7.29;100.00
3142;BME280;1581;51.568;6.998;2023-02-22T05:32:51;100632.00;;;7.24;100.00
3142;BME280;1581;51.568;6.998;2023-02-22T05:35:21;100630.81;;;7.35;100.00
3142;BME280;1581;51.568;6.998;2023-02-22T05:37:49;100628.69;;;7.30;100.00
3142;BME280;1581;51.568;6.998;2023-02-22T05:40:18;100623.22;;;7.32;100.00
3142;BME280;1581;51.568;6.998;2023-02-22T05:42:46;100631.50;;;7.37;100.00
3142;BME280;1581;51.568;6.998;2023-02-22T05:45:15;100627.38;;;7.26;100.00
3142;BME280;1581;51.568;6.998;2023-02-22T05:47:43;100624.06;;;7.32;100.00
3142;BME280;1581;51.568;6.998;2023-02-22T05:50:13;100618.88;;;7.39;100.00
3142;BME280;1581;51.568;6.998;2023-02-22T05:52:41;100627.81;;;7.46;100.00
3142;BME280;1581;51.568;6.998;2023-02-22T05:55:12;100622.66;;;7.44;100.00
3142;BME280;1581;51.568;6.998;2023-02-22T05:57:41;100616.22;;;7.47;100.00
3142;BME280;1581;51.568;6.998;2023-02-22T06:00:14;100612.38;;;7.49;100.00
3142;BME280;1581;51.568;6.998;2023-02-22T06:02:42;100609.41;;;7.52;100.00
3142;BME280;1581;51.568;6.998;2023-02-22T06:05:11;100605.13;;;7.43;100.00
3142;BME280;1581;51.568;6.998;2023-02-22T06:07:39;100616.97;;;7.09;100.00
3142;BME280;1581;51.568;6.998;2023-02-22T06:10:07;100613.50;;;7.08;100.00
3142;BME280;1581;51.568;6.998;2023-02-22T06:12:35;100613.09;;;7.35;100.00
3142;BME280;1581;51.568;6.998;2023-02-22T06:15:03;100616.22;;;7.39;100.00
3142;BME280;1581;51.568;6.998;2023-02-22T06:17:31;100613.78;;;7.29;100.00
3142;BME280;1581;51.568;6.998;2023-02-22T06:19:59;100613.31;;;7.18;100.00
3142;BME280;1581;51.568;6.998;2023-02-22T06:22:28;100615.78;;;7.27;100.00
3142;BME280;1581;51.568;6.998;2023-02-22T06:24:55;100613.00;;;7.13;100.00
3142;BME280;1581;51.568;6.998;2023-02-22T06:27:23;100609.84;;;7.17;100.00
3142;BME280;1581;51.568;6.998;2023-02-22T06:29:51;100619.63;;;7.17;100.00
3142;BME280;1581;51.568;6.998;2023-02-22T06:32:19;100612.72;;;6.92;100.00
3142;BME280;1581;51.568;6.998;2023-02-22T06:34:46;100610.75;;;6.86;100.00
3142;BME280;1581;51.568;6.998;2023-02-22T06:37:14;100616.22;;;6.77;100.00
3142;BME280;1581;51.568;6.998;2023-02-22T06:39:43;100614.19;;;7.02;100.00
3142;BME280;1581;51.568;6.998;2023-02-22T06:42:11;100614.81;;;7.20;100.00
3142;BME280;1581;51.568;6.998;2023-02-22T06:44:39;100624.75;;;7.18;100.00
3142;BME280;1581;51.568;6.998;2023-02-22T06:47:06;100614.06;;;7.34;100.00
3142;BME280;1581;51.568;6.998;2023-02-22T06:49:35;100619.38;;;7.42;100.00
3142;BME280;1581;51.568;6.998;2023-02-22T06:52:04;100615.72;;;7.35;100.00
3142;BME280;1581;51.568;6.998;2023-02-22T06:54:32;100606.78;;;7.36;100.00
3142;BME280;1581;51.568;6.998;2023-02-22T06:57:01;100612.06;;;7.44;100.00
3142;BME280;1581;51.568;6.998;2023-02-22T06:59:29;100612.38;;;7.49;100.00
3142;BME280;1581;51.568;6.998;2023-02-22T07:01:57;100612.03;;;7.52;100.00
3142;BME280;1581;51.568;6.998;2023-02-22T07:04:25;100603.91;;;7.54;100.00
3142;BME280;1581;51.568;6.998;2023-02-22T07:06:52;100601.66;;;7.35;100.00
3142;BME280;1581;51.568;6.998;2023-02-22T07:09:20;100605.16;;;7.27;100.00
3142;BME280;1581;51.568;6.998;2023-02-22T07:11:48;100607.88;;;7.50;100.00
3142;BME280;1581;51.568;6.998;2023-02-22T07:14:18;100605.72;;;7.61;100.00
3142;BME280;1581;51.568;6.998;2023-02-22T07:16:45;100608.16;;;7.32;100.00
3142;BME280;1581;51.568;6.998;2023-02-22T07:19:13;100617.34;;;7.52;100.00
3142;BME280;1581;51.568;6.998;2023-02-22T07:21:41;100602.28;;;7.45;100.00
3142;BME280;1581;51.568;6.998;2023-02-22T07:24:09;100606.41;;;7.47;100.00
3142;BME280;1581;51.568;6.998;2023-02-22T07:26:39;100607.66;;;7.67;100.00
3142;BME280;1581;51.568;6.998;2023-02-22T07:29:08;100616.66;;;7.58;100.00
3142;BME280;1581;51.568;6.998;2023-02-22T07:31:38;100608.22;;;7.55;100.00
3142;BME280;1581;51.568;6.998;2023-02-22T07:34:06;100610.00;;;7.62;100.00
3142;BME280;1581;51.568;6.998;2023-02-22T07:36:34;100614.09;;;7.72;100.00
3142;BME280;1581;51.568;6.998;2023-02-22T07:39:02;100616.44;;;7.68;100.00
3142;BME280;1581;51.568;6.998;2023-02-22T07:41:33;100609.25;;;7.76;100.00
3142;BME280;1581;51.568;6.998;2023-02-22T07:44:01;100612.66;;;7.62;100.00
3142;BME280;1581;51.568;6.998;2023-02-22T07:46:29;100610.38;;;7.51;100.00
3142;BME280;1581;51.568;6.998;2023-02-22T07:48:58;100605.00;;;7.97;100.00
3142;BME280;1581;51.568;6.998;2023-02-22T07:51:25;100607.91;;;8.18;100.00
3142;BME280;1581;51.568;6.998;2023-02-22T07:53:53;100609.53;;;8.19;100.00
3142;BME280;1581;51.568;6.998;2023-02-22T07:56:20;100601.75;;;8.18;100.00
3142;BME280;1581;51.568;6.998;2023-02-22T07:58:48;100591.03;;;8.03;100.00
3142;BME280;1581;51.568;6.998;2023-02-22T08:01:16;100593.56;;;7.97;100.00
3142;BME280;1581;51.568;6.998;2023-02-22T08:03:43;100595.53;;;8.03;100.00
3142;BME280;1581;51.568;6.998;2023-02-22T08:06:13;100592.19;;;8.31;100.00
3142;BME280;1581;51.568;6.998;2023-02-22T08:08:41;100587.75;;;8.46;100.00
3142;BME280;1581;51.568;6.998;2023-02-22T08:11:09;100590.13;;;8.19;100.00
3142;BME280;1581;51.568;6.998;2023-02-22T08:13:38;100582.72;;;8.06;100.00
3142;BME280;1581;51.568;6.998;2023-02-22T08:16:06;100580.84;;;8.59;100.00
3142;BME280;1581;51.568;6.998;2023-02-22T08:18:33;100582.88;;;8.72;100.00
3142;BME280;1581;51.568;6.998;2023-02-22T08:21:03;100583.72;;;8.72;100.00
3142;BME280;1581;51.568;6.998;2023-02-22T08:23:33;100584.28;;;8.97;100.00
3142;BME280;1581;51.568;6.998;2023-02-22T08:26:11;100591.88;;;8.85;100.00
3142;BME280;1581;51.568;6.998;2023-02-22T08:28:40;100586.00;;;8.90;100.00
3142;BME280;1581;51.568;6.998;2023-02-22T08:31:08;100583.09;;;8.99;100.00
3142;BME280;1581;51.568;6.998;2023-02-22T08:33:35;100581.00;;;9.09;100.00
3142;BME280;1581;51.568;6.998;2023-02-22T08:36:04;100574.38;;;9.34;100.00
3142;BME280;1581;51.568;6.998;2023-02-22T08:38:33;100573.75;;;9.46;100.00
3142;BME280;1581;51.568;6.998;2023-02-22T08:41:01;100569.00;;;9.13;100.00
3142;BME280;1581;51.568;6.998;2023-02-22T08:43:29;100566.50;;;9.26;100.00
3142;BME280;1581;51.568;6.998;2023-02-22T08:45:57;100578.53;;;9.08;100.00
3142;BME280;1581;51.568;6.998;2023-02-22T08:48:25;100575.13;;;9.28;100.00
3142;BME280;1581;51.568;6.998;2023-02-22T08:50:52;100573.38;;;9.35;100.00
3142;BME280;1581;51.568;6.998;2023-02-22T08:53:20;100574.84;;;9.52;100.00
3142;BME280;1581;51.568;6.998;2023-02-22T08:55:49;100568.88;;;9.50;100.00
3142;BME280;1581;51.568;6.998;2023-02-22T08:58:17;100569.16;;;8.97;100.00
3142;BME280;1581;51.568;6.998;2023-02-22T09:00:45;100564.75;;;9.47;100.00
3142;BME280;1581;51.568;6.998;2023-02-22T09:03:14;100563.16;;;9.67;100.00
3142;BME280;1581;51.568;6.998;2023-02-22T09:05:42;100560.47;;;9.82;100.00
3142;BME280;1581;51.568;6.998;2023-02-22T09:08:10;100566.09;;;9.58;100.00
3142;BME280;1581;51.568;6.998;2023-02-22T09:10:39;100560.72;;;9.87;100.00
3142;BME280;1581;51.568;6.998;2023-02-22T09:13:08;100558.66;;;10.03;100.00
3142;BME280;1581;51.568;6.998;2023-02-22T09:15:36;100559.22;;;9.99;100.00
3142;BME280;1581;51.568;6.998;2023-02-22T09:18:07;100558.56;;;9.97;100.00
3142;BME280;1581;51.568;6.998;2023-02-22T09:20:36;100560.06;;;10.20;100.00
3142;BME280;1581;51.568;6.998;2023-02-22T09:23:05;100556.25;;;10.29;100.00
3142;BME280;1581;51.568;6.998;2023-02-22T09:25:35;100554.56;;;10.42;100.00
3142;BME280;1581;51.568;6.998;2023-02-22T09:28:04;100550.78;;;10.58;100.00
3142;BME280;1581;51.568;6.998;2023-02-22T09:30:35;100558.09;;;10.77;100.00
3142;BME280;1581;51.568;6.998;2023-02-22T09:33:06;100554.97;;;10.73;100.00
3142;BME280;1581;51.568;6.998;2023-02-22T09:35:36;100552.41;;;10.86;100.00
3142;BME280;1581;51.568;6.998;2023-02-22T09:38:08;100548.41;;;11.03;100.00
3142;BME280;1581;51.568;6.998;2023-02-22T09:40:39;100546.28;;;10.58;100.00
3142;BME280;1581;51.568;6.998;2023-02-22T09:43:24;100550.63;;;10.38;100.00
3142;BME280;1581;51.568;6.998;2023-02-22T09:46:11;100550.59;;;10.59;100.00
3142;BME280;1581;51.568;6.998;2023-02-22T09:48:55;100548.16;;;10.37;100.00
3142;BME280;1581;51.568;6.998;2023-02-22T09:51:29;100545.38;;;11.06;100.00
3142;BME280;1581;51.568;6.998;2023-02-22T09:54:03;100544.06;;;11.29;100.00
3142;BME280;1581;51.568;6.998;2023-02-22T09:56:32;100554.66;;;10.83;100.00
3142;BME280;1581;51.568;6.998;2023-02-22T09:59:04;100551.34;;;11.08;100.00
3142;BME280;1581;51.568;6.998;2023-02-22T10:01:38;100549.03;;;11.39;100.00
3142;BME280;1581;51.568;6.998;2023-02-22T10:04:15;100544.22;;;11.21;100.00
3142;BME280;1581;51.568;6.998;2023-02-22T10:07:00;100545.72;;;11.71;100.00
3142;BME280;1581;51.568;6.998;2023-02-22T10:09:33;100546.38;;;11.92;100.00
3142;BME280;1581;51.568;6.998;2023-02-22T10:12:09;100543.75;;;12.11;100.00
3142;BME280;1581;51.568;6.998;2023-02-22T10:18:19;100537.75;;;11.97;100.00
3142;BME280;1581;51.568;6.998;2023-02-22T10:20:55;100544.69;;;11.78;100.00
3142;BME280;1581;51.568;6.998;2023-02-22T10:23:32;100534.72;;;12.32;100.00
3142;BME280;1581;51.568;6.998;2023-02-22T10:26:14;100529.19;;;12.59;100.00
3142;BME280;1581;51.568;6.998;2023-02-22T10:28:47;100534.72;;;12.77;100.00
3142;BME280;1581;51.568;6.998;2023-02-22T10:31:24;100531.81;;;12.85;100.00
3142;BME280;1581;51.568;6.998;2023-02-22T10:33:57;100527.06;;;13.13;100.00
3142;BME280;1581;51.568;6.998;2023-02-22T10:36:27;100525.88;;;13.02;100.00
3142;BME280;1581;51.568;6.998;2023-02-22T10:38:59;100522.47;;;13.39;100.00
3142;BME280;1581;51.568;6.998;2023-02-22T10:41:30;100526.09;;;13.58;100.00
3142;BME280;1581;51.568;6.998;2023-02-22T10:43:58;100520.09;;;13.62;100.00
3142;BME280;1581;51.568;6.998;2023-02-22T10:46:28;100523.47;;;13.38;100.00
3142;BME280;1581;51.568;6.998;2023-02-22T10:49:04;100515.00;;;13.54;100.00
3142;BME280;1581;51.568;6.998;2023-02-22T10:51:33;100512.38;;;13.85;100.00
3142;BME280;1581;51.568;6.998;2023-02-22T10:54:20;100506.53;;;13.94;100.00
3142;BME280;1581;51.568;6.998;2023-02-22T10:56:51;100503.25;;;14.23;100.00
3142;BME280;1581;51.568;6.998;2023-02-22T10:59:30;100501.25;;;14.43;100.00
3142;BME280;1581;51.568;6.998;2023-02-22T11:01:59;100507.25;;;14.39;100.00
3142;BME280;1581;51.568;6.998;2023-02-22T11:04:45;100497.84;;;14.54;100.00
3142;BME280;1581;51.568;6.998;2023-02-22T11:07:24;100494.56;;;14.76;100.00
3142;BME280;1581;51.568;6.998;2023-02-22T11:09:55;100487.50;;;15.00;100.00
3142;BME280;1581;51.568;6.998;2023-02-22T11:12:30;100493.66;;;15.18;100.00
3142;BME280;1581;51.568;6.998;2023-02-22T11:15:26;100483.44;;;15.33;100.00
3142;BME280;1581;51.568;6.998;2023-02-22T11:17:56;100489.28;;;15.06;100.00
3142;BME280;1581;51.568;6.998;2023-02-22T11:20:30;100486.78;;;15.29;100.00
3142;BME280;1581;51.568;6.998;2023-02-22T11:23:03;100484.00;;;15.53;100.00
3142;BME280;1581;51.568;6.998;2023-02-22T11:25:35;100483.75;;;15.54;100.00
3142;BME280;1581;51.568;6.998;2023-02-22T11:28:08;100480.81;;;15.74;100.00
3142;BME280;1581;51.568;6.998;2023-02-22T11:30:50;100483.81;;;15.66;100.00
3142;BME280;1581;51.568;6.998;2023-02-22T11:33:21;100483.00;;;15.95;100.00
3142;BME280;1581;51.568;6.998;2023-02-22T11:35:52;100480.22;;;16.13;99.50
3142;BME280;1581;51.568;6.998;2023-02-22T11:38:21;100478.84;;;15.81;97.46
3142;BME280;1581;51.568;6.998;2023-02-22T11:41:14;100464.09;;;16.01;98.65
3142;BME280;1581;51.568;6.998;2023-02-22T11:43:42;100468.13;;;15.92;96.89
3142;BME280;1581;51.568;6.998;2023-02-22T11:46:16;100466.78;;;15.25;94.68
3142;BME280;1581;51.568;6.998;2023-02-22T11:48:56;100473.97;;;15.89;96.65
3142;BME280;1581;51.568;6.998;2023-02-22T11:51:41;100458.66;;;16.42;95.80
3142;BME280;1581;51.568;6.998;2023-02-22T11:54:31;100458.56;;;16.71;96.08
3142;BME280;1581;51.568;6.998;2023-02-22T11:57:14;100455.03;;;16.94;96.64
3142;BME280;1581;51.568;6.998;2023-02-22T12:00:00;100449.34;;;17.18;95.46
3142;BME280;1581;51.568;6.998;2023-02-22T12:03:12;100448.50;;;16.67;93.22
3142;BME280;1581;51.568;6.998;2023-02-22T12:06:02;100446.22;;;17.10;90.47
3142;BME280;1581;51.568;6.998;2023-02-22T12:08:43;100446.78;;;17.62;90.23
3142;BME280;1581;51.568;6.998;2023-02-22T12:11:16;100445.03;;;17.84;89.99
3142;BME280;1581;51.568;6.998;2023-02-22T12:14:08;100443.47;;;17.44;87.88
3142;BME280;1581;51.568;6.998;2023-02-22T12:17:03;100445.72;;;17.63;86.90
3142;BME280;1581;51.568;6.998;2023-02-22T12:19:38;100435.19;;;18.06;86.64
3142;BME280;1581;51.568;6.998;2023-02-22T12:22:14;100440.38;;;18.40;86.43
3142;BME280;1581;51.568;6.998;2023-02-22T12:24:47;100429.16;;;18.15;83.57
3142;BME280;1581;51.568;6.998;2023-02-22T12:27:21;100426.63;;;18.42;83.98
3142;BME280;1581;51.568;6.998;2023-02-22T12:29:57;100432.84;;;18.59;82.84
3142;BME280;1581;51.568;6.998;2023-02-22T12:32:32;100425.16;;;18.89;82.39
3142;BME280;1581;51.568;6.998;2023-02-22T12:35:12;100428.28;;;19.18;81.12
3142;BME280;1581;51.568;6.998;2023-02-22T12:37:52;100426.25;;;18.71;76.24
3142;BME280;1581;51.568;6.998;2023-02-22T12:40:30;100417.03;;;19.26;77.04
3142;BME280;1581;51.568;6.998;2023-02-22T12:43:05;100424.50;;;19.41;74.37
3142;BME280;1581;51.568;6.998;2023-02-22T12:45:40;100427.41;;;19.61;73.90
3142;BME280;1581;51.568;6.998;2023-02-22T12:48:26;100426.22;;;18.50;68.68
3142;BME280;1581;51.568;6.998;2023-02-22T12:51:24;100420.81;;;18.50;74.22
3142;BME280;1581;51.568;6.998;2023-02-22T12:54:03;100417.59;;;18.69;72.63
3142;BME280;1581;51.568;6.998;2023-02-22T12:56:36;100422.00;;;18.75;73.18
3142;BME280;1581;51.568;6.998;2023-02-22T12:59:15;100421.47;;;18.57;69.92
3142;BME280;1581;51.568;6.998;2023-02-22T13:01:50;100417.41;;;18.76;69.42
3142;BME280;1581;51.568;6.998;2023-02-22T13:04:18;100418.06;;;19.04;67.27
3142;BME280;1581;51.568;6.998;2023-02-22T13:07:15;100420.38;;;18.09;63.89
3142;BME280;1581;51.568;6.998;2023-02-22T13:13:08;100426.16;;;19.20;63.82
3142;BME280;1581;51.568;6.998;2023-02-22T13:15:47;100423.94;;;19.65;63.74
3142;BME280;1581;51.568;6.998;2023-02-22T13:18:27;100417.91;;;18.73;57.27
3142;BME280;1581;51.568;6.998;2023-02-22T13:21:02;100422.41;;;19.05;55.93
3142;BME280;1581;51.568;6.998;2023-02-22T13:23:40;100416.03;;;18.73;58.20
3142;BME280;1581;51.568;6.998;2023-02-22T13:26:20;100419.75;;;19.10;58.94
3142;BME280;1581;51.568;6.998;2023-02-22T13:28:55;100418.84;;;19.00;55.02
3142;BME280;1581;51.568;6.998;2023-02-22T13:31:55;100414.81;;;18.26;55.89
3142;BME280;1581;51.568;6.998;2023-02-22T13:38:09;100410.22;;;18.27;59.07
3142;BME280;1581;51.568;6.998;2023-02-22T13:41:12;100407.31;;;18.66;59.10
3142;BME280;1581;51.568;6.998;2023-02-22T13:43:58;100419.19;;;19.51;60.04
3142;BME280;1581;51.568;6.998;2023-02-22T13:52:51;100406.84;;;18.20;56.53
3142;BME280;1581;51.568;6.998;2023-02-22T13:55:25;100411.44;;;18.36;57.14
3142;BME280;1581;51.568;6.998;2023-02-22T13:58:04;100408.81;;;18.41;51.90